Time;durP1;ratioP1;P1;durP2;ratioP2;P2;SDS_P1;SDS_P2;PMS_P1;PMS_P2;Temp;Humidity;BMP_temperature;BMP_pressure;BME280_temperature;BME280_humidity;BME280_pressure;Samples;Min_cycle;Max_cycle;Signal;HPM_P1;HPM_P2
2023/02/26 00:01:13;;;;;;;2.80;2.40;;;1.00;99.90;;;;;;5098709;28;20206;-81
2023/02/26 00:03:40;;;;;;;6.07;4.05;;;1.00;99.90;;;;;;5090301;28;20523;-81
2023/02/26 00:06:08;;;;;;;7.10;3.60;;;1.10;99.90;;;;;;5098197;28;20269;-81
2023/02/26 00:08:35;;;;;;;3.35;3.05;;;1.10;99.90;;;;;;5099509;28;20210;-80
2023/02/26 00:11:06;;;;;;;3.53;2.90;;;1.10;99.90;;;;;;5100789;28;20202;-81
2023/02/26 00:13:35;;;;;;;8.02;3.83;;;1.00;99.90;;;;;;5079322;28;20279;-81
2023/02/26 00:16:12;;;;;;;4.20;2.97;;;1.10;99.90;;;;;;5093174;28;20265;-81
2023/02/26 00:18:39;;;;;;;3.30;3.00;;;1.10;99.90;;;;;;5097492;28;20223;-81
2023/02/26 00:21:08;;;;;;;3.72;3.42;;;1.10;99.90;;;;;;5090710;28;20277;-81
2023/02/26 00:23:35;;;;;;;6.03;3.20;;;1.10;99.90;;;;;;5100273;28;20210;-80
2023/02/26 00:26:02;;;;;;;3.95;3.08;;;1.10;99.90;;;;;;5100471;28;20502;-81
2023/02/26 00:28:29;;;;;;;2.95;2.65;;;1.10;99.90;;;;;;5099393;28;20207;-81
2023/02/26 00:30:56;;;;;;;2.67;2.42;;;1.10;99.90;;;;;;5099295;28;20502;-81
2023/02/26 00:33:23;;;;;;;4.45;2.90;;;1.20;99.90;;;;;;5080973;28;20296;-81
2023/02/26 00:35:58;;;;;;;2.88;2.38;;;1.10;99.90;;;;;;5098736;28;20238;-82
2023/02/26 00:38:29;;;;;;;3.55;2.80;;;1.20;99.90;;;;;;5081445;28;20248;-82
2023/02/26 00:40:56;;;;;;;3.05;2.75;;;1.20;99.90;;;;;;5098766;28;20204;-81
2023/02/26 00:43:27;;;;;;;3.65;2.53;;;1.20;99.90;;;;;;5098783;28;20210;-80
2023/02/26 00:46:17;;;;;;;3.67;3.17;;;1.20;99.90;;;;;;5096937;28;20437;-80
2023/02/26 00:48:53;;;;;;;3.50;2.28;;;1.20;99.90;;;;;;5098317;28;20206;-81
2023/02/26 00:51:35;;;;;;;3.05;2.00;;;1.00;99.90;;;;;;5097273;28;20203;-81
2023/02/26 00:54:15;;;;;;;3.60;2.58;;;1.00;99.90;;;;;;5089829;28;20247;-81
2023/02/26 00:56:42;;;;;;;6.20;2.92;;;1.00;99.90;;;;;;5073212;28;20215;-81
2023/02/26 00:59:11;;;;;;;3.35;3.05;;;1.10;99.90;;;;;;5096889;28;20205;-80
2023/02/26 01:01:38;;;;;;;3.63;3.00;;;1.10;99.90;;;;;;5079572;28;20206;-81
2023/02/26 01:04:06;;;;;;;3.67;2.58;;;1.10;99.90;;;;;;5098359;28;20248;-81
2023/02/26 01:06:37;;;;;;;3.78;2.65;;;1.00;99.90;;;;;;5098280;28;20198;-80
2023/02/26 01:09:14;;;;;;;2.55;2.35;;;1.00;99.90;;;;;;5072150;28;20248;-80
2023/02/26 01:11:42;;;;;;;3.58;2.50;;;1.00;99.90;;;;;;5079587;28;20213;-80
2023/02/26 01:14:09;;;;;;;3.97;2.97;;;0.90;99.90;;;;;;5098022;28;20205;-81
2023/02/26 01:16:46;;;;;;;3.10;2.42;;;0.90;99.90;;;;;;5095504;28;20298;-80
2023/02/26 01:19:28;;;;;;;2.92;2.65;;;0.90;99.90;;;;;;5090745;28;20255;-81
2023/02/26 01:22:10;;;;;;;9.70;3.40;;;0.90;99.90;;;;;;5097660;28;20225;-80
2023/02/26 01:24:38;;;;;;;3.72;3.25;;;0.90;99.90;;;;;;5097630;28;20210;-80
2023/02/26 01:27:05;;;;;;;5.95;2.75;;;0.90;99.90;;;;;;5071891;28;20236;-80
2023/02/26 01:29:32;;;;;;;3.13;2.55;;;0.90;99.90;;;;;;5097403;28;20198;-81
2023/02/26 01:32:27;;;;;;;7.40;3.65;;;0.90;99.90;;;;;;5097311;28;20237;-81
2023/02/26 01:35:08;;;;;;;2.80;2.60;;;0.90;99.90;;;;;;5079805;28;20327;-79
2023/02/26 01:37:47;;;;;;;3.80;3.45;;;0.80;99.90;;;;;;5093711;28;20236;-81
2023/02/26 01:40:50;;;;;;;3.42;2.38;;;0.80;99.90;;;;;;5093601;28;20205;-79
2023/02/26 01:44:01;;;;;;;3.72;3.42;;;0.90;99.90;;;;;;5090795;28;20391;-79
2023/02/26 01:46:44;;;;;;;3.60;3.30;;;0.90;99.90;;;;;;5073046;28;20416;-81
2023/02/26 01:49:13;;;;;;;4.15;3.75;;;0.90;99.90;;;;;;5097263;28;20206;-79
2023/02/26 01:51:46;;;;;;;3.50;2.78;;;0.80;99.90;;;;;;5080787;28;20205;-81
2023/02/26 01:54:15;;;;;;;7.68;3.60;;;0.90;99.90;;;;;;5095752;28;20466;-81
2023/02/26 01:56:44;;;;;;;4.88;3.40;;;0.90;99.90;;;;;;5071698;28;20341;-80
2023/02/26 01:59:14;;;;;;;3.30;3.00;;;0.90;99.90;;;;;;5097683;28;20213;-81
2023/02/26 02:01:42;;;;;;;3.85;3.10;;;0.90;99.90;;;;;;5075568;28;20244;-79
2023/02/26 02:04:13;;;;;;;3.70;3.38;;;0.90;99.90;;;;;;5097713;28;20225;-79
2023/02/26 02:06:42;;;;;;;4.00;3.60;;;0.90;99.90;;;;;;5077199;28;20532;-81
2023/02/26 02:09:09;;;;;;;3.50;3.20;;;1.00;99.90;;;;;;5097648;28;20207;-79
2023/02/26 02:11:48;;;;;;;4.35;2.72;;;1.00;99.90;;;;;;5093681;28;20241;-82
2023/02/26 02:14:33;;;;;;;4.97;4.25;;;1.00;99.90;;;;;;5083236;28;20216;-80
2023/02/26 02:17:14;;;;;;;3.72;3.20;;;1.00;99.90;;;;;;5090903;28;20224;-80
2023/02/26 02:19:54;;;;;;;6.47;3.13;;;1.00;99.90;;;;;;5097264;28;20210;-80
2023/02/26 02:22:30;;;;;;;4.13;3.08;;;1.00;99.90;;;;;;5087827;28;20211;-79
2023/02/26 02:25:21;;;;;;;3.25;2.95;;;0.90;99.90;;;;;;5086684;28;20210;-82
2023/02/26 02:28:06;;;;;;;3.30;2.92;;;0.90;99.90;;;;;;5091968;28;20256;-78
2023/02/26 02:30:50;;;;;;;6.22;3.70;;;0.90;99.90;;;;;;5088720;28;20578;-79
2023/02/26 02:33:22;;;;;;;3.88;3.47;;;0.90;99.90;;;;;;5074474;28;20409;-81
2023/02/26 02:35:59;;;;;;;2.95;2.72;;;0.90;99.90;;;;;;5090290;28;20206;-79
2023/02/26 02:38:39;;;;;;;7.82;3.70;;;0.90;99.90;;;;;;5075646;28;20244;-80
2023/02/26 02:41:19;;;;;;;4.47;3.22;;;1.00;99.90;;;;;;5074858;28;20233;-79
2023/02/26 02:43:48;;;;;;;4.13;3.70;;;1.00;99.90;;;;;;5091208;28;20206;-80
2023/02/26 02:46:25;;;;;;;8.73;3.67;;;1.00;99.90;;;;;;5092673;28;20207;-80
2023/02/26 02:49:04;;;;;;;3.78;3.03;;;1.00;99.90;;;;;;5092626;28;20204;-79
2023/02/26 02:51:36;;;;;;;4.72;3.15;;;1.00;99.90;;;;;;5092511;28;20568;-80
2023/02/26 02:54:15;;;;;;;3.65;3.28;;;1.10;99.90;;;;;;5096521;28;21953;-80
2023/02/26 02:57:05;;;;;;;3.97;3.25;;;1.10;99.90;;;;;;5094589;28;20225;-80
2023/02/26 02:59:42;;;;;;;3.47;3.13;;;1.20;99.90;;;;;;5104263;28;20296;-81
2023/02/26 03:02:30;;;;;;;5.20;3.05;;;1.20;99.90;;;;;;5084323;28;20252;-81
2023/02/26 03:04:57;;;;;;;3.85;3.10;;;1.10;99.90;;;;;;5095575;28;20279;-80
2023/02/26 03:07:24;;;;;;;3.47;3.17;;;1.20;99.90;;;;;;5093203;28;20267;-80
2023/02/26 03:09:53;;;;;;;3.78;3.03;;;1.10;99.90;;;;;;5089707;28;20247;-79
2023/02/26 03:12:20;;;;;;;3.95;3.55;;;0.90;99.90;;;;;;5094001;28;20212;-79
2023/02/26 03:14:48;;;;;;;5.43;2.95;;;1.00;99.90;;;;;;5096802;28;20203;-80
2023/02/26 03:17:29;;;;;;;2.70;2.50;;;1.00;99.90;;;;;;5099097;28;20579;-81
2023/02/26 03:20:34;;;;;;;4.10;3.70;;;1.00;99.90;;;;;;5096090;28;20201;-80
2023/02/26 03:23:13;;;;;;;3.22;3.03;;;1.00;99.90;;;;;;5089738;28;20193;-79
2023/02/26 03:26:01;;;;;;;2.75;2.55;;;1.00;99.90;;;;;;5104459;28;20194;-81
2023/02/26 03:28:37;;;;;;;5.72;3.13;;;1.00;99.90;;;;;;5114607;28;20191;-80
2023/02/26 03:31:20;;;;;;;2.55;2.35;;;0.90;99.90;;;;;;5116551;28;20186;-80
2023/02/26 03:34:02;;;;;;;2.80;2.60;;;0.90;99.90;;;;;;5111197;28;20205;-80
2023/02/26 03:36:32;;;;;;;3.85;3.40;;;0.90;99.90;;;;;;5110669;28;20233;-81
2023/02/26 03:39:11;;;;;;;6.50;2.90;;;0.90;99.90;;;;;;5095202;28;20651;-80
2023/02/26 03:41:45;;;;;;;6.20;3.80;;;0.80;99.90;;;;;;5098044;28;20230;-80
2023/02/26 03:44:27;;;;;;;4.43;3.92;;;0.90;99.90;;;;;;5092155;28;20207;-80
2023/02/26 03:46:59;;;;;;;2.47;2.28;;;1.00;99.90;;;;;;5098603;28;20224;-80
2023/02/26 03:49:37;;;;;;;3.88;3.10;;;0.90;99.90;;;;;;5099936;28;20206;-80
2023/02/26 03:52:06;;;;;;;3.42;3.13;;;0.80;99.90;;;;;;5099833;28;20217;-80
2023/02/26 03:54:58;;;;;;;2.47;2.28;;;0.80;99.90;;;;;;5095912;28;20494;-79
2023/02/26 03:57:25;;;;;;;3.08;2.83;;;0.80;99.90;;;;;;5093127;28;20230;-80
2023/02/26 03:59:52;;;;;;;4.07;3.33;;;0.90;99.90;;;;;;5096538;28;20203;-80
2023/02/26 04:02:32;;;;;;;3.10;2.80;;;0.80;99.90;;;;;;5091951;28;20386;-81
2023/02/26 04:05:16;;;;;;;2.30;2.10;;;0.80;99.90;;;;;;5077102;28;20517;-80
2023/02/26 04:07:45;;;;;;;3.05;2.65;;;0.80;99.90;;;;;;5074659;28;20202;-80
2023/02/26 04:10:20;;;;;;;5.10;2.75;;;0.80;99.90;;;;;;5091032;28;20240;-78
2023/02/26 04:12:47;;;;;;;3.33;2.45;;;0.80;99.90;;;;;;5098630;28;20205;-80
2023/02/26 04:15:14;;;;;;;4.35;2.58;;;0.70;99.90;;;;;;5091023;28;20571;-80
2023/02/26 04:17:41;;;;;;;2.03;1.92;;;0.70;99.90;;;;;;5093639;28;20229;-79
2023/02/26 04:20:11;;;;;;;3.78;2.65;;;0.70;99.90;;;;;;5096254;28;20207;-81
2023/02/26 04:22:38;;;;;;;2.55;2.35;;;0.70;99.90;;;;;;5094033;28;20199;-79
2023/02/26 04:25:06;;;;;;;3.03;2.72;;;0.80;99.90;;;;;;5096129;28;20214;-79
2023/02/26 04:27:32;;;;;;;3.35;2.88;;;0.70;99.90;;;;;;5092241;28;20249;-80
2023/02/26 04:29:59;;;;;;;3.10;2.33;;;0.70;99.90;;;;;;5094043;28;20210;-80
2023/02/26 04:32:26;;;;;;;3.78;2.35;;;0.80;99.90;;;;;;5089914;28;20510;-80
2023/02/26 04:34:53;;;;;;;2.35;2.00;;;0.80;99.90;;;;;;5095845;28;20202;-79
2023/02/26 04:37:20;;;;;;;4.75;2.88;;;0.70;99.90;;;;;;5099141;28;20253;-80
2023/02/26 04:39:47;;;;;;;2.83;2.40;;;0.70;99.90;;;;;;5099055;28;20251;-79
2023/02/26 04:42:14;;;;;;;8.13;2.92;;;0.70;99.90;;;;;;5094421;28;20202;-79
2023/02/26 04:44:40;;;;;;;3.47;2.63;;;0.70;99.90;;;;;;5086867;28;20553;-81
2023/02/26 04:47:08;;;;;;;2.42;2.20;;;0.70;99.90;;;;;;5095132;28;20210;-82
2023/02/26 04:49:35;;;;;;;2.88;2.45;;;0.80;99.90;;;;;;5087793;28;20540;-80
2023/02/26 04:52:02;;;;;;;4.35;2.78;;;0.80;99.90;;;;;;5096607;28;20248;-81
2023/02/26 04:54:29;;;;;;;3.47;3.05;;;0.90;99.90;;;;;;5091494;28;20225;-80
2023/02/26 04:56:56;;;;;;;2.30;2.10;;;0.80;99.90;;;;;;5096308;28;20218;-81
2023/02/26 04:59:23;;;;;;;2.30;2.08;;;0.90;99.90;;;;;;5096497;28;20213;-80
2023/02/26 05:01:49;;;;;;;4.55;2.05;;;0.80;99.90;;;;;;5090272;28;20210;-80
2023/02/26 05:04:17;;;;;;;2.80;2.05;;;0.70;99.90;;;;;;5089963;28;20224;-80
2023/02/26 05:06:44;;;;;;;2.28;2.08;;;0.70;99.90;;;;;;5092030;28;20298;-81
2023/02/26 05:09:11;;;;;;;3.10;2.05;;;0.70;99.90;;;;;;5096931;28;20245;-80
2023/02/26 05:11:37;;;;;;;4.57;2.47;;;0.70;99.90;;;;;;5093148;28;20248;-78
2023/02/26 05:14:04;;;;;;;2.88;1.88;;;0.80;99.90;;;;;;5095324;28;20259;-81
2023/02/26 05:16:31;;;;;;;3.33;1.95;;;0.70;99.90;;;;;;5095191;28;20471;-80
2023/02/26 05:18:59;;;;;;;2.75;2.55;;;0.70;99.90;;;;;;5094995;28;20269;-80
2023/02/26 05:21:25;;;;;;;2.40;2.20;;;0.70;99.90;;;;;;5091033;28;20214;-80
2023/02/26 05:23:52;;;;;;;3.25;2.60;;;0.70;99.90;;;;;;5096526;28;20255;-79
2023/02/26 05:26:19;;;;;;;1.88;1.77;;;0.70;99.90;;;;;;5092292;28;20202;-79
2023/02/26 05:28:46;;;;;;;2.72;2.53;;;0.70;99.90;;;;;;5095719;28;20399;-82
2023/02/26 05:31:13;;;;;;;2.80;1.90;;;0.70;99.90;;;;;;5091452;28;20207;-81
2023/02/26 05:33:41;;;;;;;2.00;1.65;;;0.70;99.90;;;;;;5089714;28;20202;-81
2023/02/26 05:36:09;;;;;;;4.95;1.75;;;0.80;99.90;;;;;;5097303;28;20229;-81
2023/02/26 05:38:36;;;;;;;2.08;1.92;;;0.80;99.90;;;;;;5089247;28;20233;-80
2023/02/26 05:41:03;;;;;;;3.10;2.60;;;0.70;99.90;;;;;;5095783;28;20247;-81
2023/02/26 05:43:32;;;;;;;1.63;1.52;;;0.70;99.90;;;;;;5097717;28;20211;-80
2023/02/26 05:45:59;;;;;;;3.35;2.28;;;0.80;99.90;;;;;;5094811;28;20207;-82
2023/02/26 05:48:27;;;;;;;5.22;2.90;;;0.70;99.90;;;;;;5098023;28;20264;-81
2023/02/26 05:50:53;;;;;;;1.58;1.48;;;0.70;99.90;;;;;;5087163;28;20432;-79
2023/02/26 05:53:20;;;;;;;2.83;1.70;;;0.70;99.90;;;;;;5075217;28;20201;-82
2023/02/26 05:55:47;;;;;;;2.97;1.80;;;0.80;99.90;;;;;;5090365;28;20221;-80
2023/02/26 05:58:15;;;;;;;3.67;1.98;;;0.80;99.90;;;;;;5096578;28;20378;-80
2023/02/26 06:00:42;;;;;;;3.90;1.75;;;0.70;99.90;;;;;;5099501;28;20218;-81
2023/02/26 06:03:09;;;;;;;3.83;2.08;;;0.70;99.90;;;;;;5081916;28;20498;-81
2023/02/26 06:05:36;;;;;;;4.32;2.53;;;0.80;99.90;;;;;;5092459;28;20206;-80
2023/02/26 06:08:04;;;;;;;3.65;2.08;;;0.80;99.90;;;;;;5104845;28;20230;-81
2023/02/26 06:10:32;;;;;;;2.10;1.77;;;0.80;99.90;;;;;;5096476;28;20202;-80
2023/02/26 06:12:58;;;;;;;2.25;2.00;;;0.80;99.90;;;;;;5096672;28;20207;-79
2023/02/26 06:15:25;;;;;;;2.65;2.00;;;0.80;99.90;;;;;;5096545;28;20253;-83
2023/02/26 06:17:52;;;;;;;5.28;2.40;;;0.80;99.90;;;;;;5091201;28;20263;-79
2023/02/26 06:20:19;;;;;;;2.03;1.83;;;0.90;99.90;;;;;;5093633;28;20651;-79
2023/02/26 06:22:46;;;;;;;2.85;2.00;;;1.00;99.90;;;;;;5096794;28;20206;-81
2023/02/26 06:25:13;;;;;;;4.45;2.30;;;1.00;99.90;;;;;;5092233;28;20259;-80
2023/02/26 06:27:39;;;;;;;1.90;1.80;;;1.00;99.90;;;;;;5096350;28;20206;-81
2023/02/26 06:30:07;;;;;;;2.88;2.20;;;1.00;99.90;;;;;;5096654;28;20222;-81
2023/02/26 06:32:34;;;;;;;2.22;2.10;;;0.90;99.90;;;;;;5085593;28;20259;-80
2023/02/26 06:35:01;;;;;;;2.67;2.38;;;0.90;99.90;;;;;;5093609;28;20241;-82
2023/02/26 06:37:28;;;;;;;2.55;2.00;;;0.90;99.90;;;;;;5096192;28;20228;-81
2023/02/26 06:39:55;;;;;;;2.63;2.42;;;0.90;99.90;;;;;;5095064;28;20229;-82
2023/02/26 06:42:22;;;;;;;2.70;2.50;;;1.00;99.90;;;;;;5092378;28;20268;-81
2023/02/26 06:44:49;;;;;;;2.80;2.50;;;1.00;99.90;;;;;;5096195;28;20225;-81
2023/02/26 06:47:16;;;;;;;4.88;2.65;;;1.00;99.90;;;;;;5080629;28;20448;-81
2023/02/26 06:49:42;;;;;;;4.18;2.33;;;1.10;99.90;;;;;;5098385;28;20213;-82
2023/02/26 06:52:09;;;;;;;3.28;2.13;;;1.10;99.90;;;;;;5095436;28;20211;-82
2023/02/26 06:54:36;;;;;;;3.40;2.60;;;1.10;99.90;;;;;;5106000;28;20201;-82
2023/02/26 06:57:03;;;;;;;3.72;2.35;;;1.10;99.90;;;;;;5092300;28;20225;-82
2023/02/26 06:59:30;;;;;;;2.88;2.28;;;1.10;99.90;;;;;;5092762;28;20330;-79
2023/02/26 07:01:57;;;;;;;2.78;2.30;;;1.20;99.90;;;;;;5091960;28;20195;-81
2023/02/26 07:04:24;;;;;;;2.78;2.13;;;1.20;99.90;;;;;;5093932;28;20213;-82
2023/02/26 07:06:51;;;;;;;2.75;2.50;;;1.10;99.90;;;;;;5098987;28;20202;-81
2023/02/26 07:09:20;;;;;;;4.40;2.40;;;1.20;99.90;;;;;;5072532;28;20852;-80
2023/02/26 07:11:48;;;;;;;2.60;2.05;;;1.20;99.90;;;;;;5075913;28;20220;-82
2023/02/26 07:14:16;;;;;;;2.70;2.50;;;1.20;99.90;;;;;;5092956;28;20681;-83
2023/02/26 07:16:43;;;;;;;3.30;2.33;;;1.30;99.90;;;;;;5097700;28;20206;-82
2023/02/26 07:19:10;;;;;;;2.20;2.00;;;1.20;99.90;;;;;;5092312;28;20510;-80
2023/02/26 07:21:37;;;;;;;2.30;2.10;;;1.10;99.90;;;;;;5091239;28;20202;-80
2023/02/26 07:24:04;;;;;;;5.70;2.22;;;1.20;99.90;;;;;;5089547;28;20204;-79
2023/02/26 07:26:31;;;;;;;1.88;1.60;;;1.30;99.90;;;;;;5089726;28;20207;-81
2023/02/26 07:28:58;;;;;;;2.78;2.05;;;1.40;99.90;;;;;;5095178;28;20250;-80
2023/02/26 07:31:25;;;;;;;2.22;2.05;;;1.40;99.90;;;;;;5082998;28;20212;-81
2023/02/26 07:33:52;;;;;;;4.72;2.17;;;1.40;99.90;;;;;;5076735;28;20276;-82
2023/02/26 07:36:19;;;;;;;2.70;2.47;;;1.60;99.90;;;;;;5090701;28;20204;-83
2023/02/26 07:38:46;;;;;;;3.05;2.80;;;1.50;99.90;;;;;;5087394;28;20258;-82
2023/02/26 07:41:14;;;;;;;2.60;2.40;;;1.40;99.90;;;;;;5093935;28;20210;-81
2023/02/26 07:43:41;;;;;;;2.88;2.30;;;1.30;99.90;;;;;;5088523;28;20252;-81
2023/02/26 07:46:08;;;;;;;2.50;2.30;;;1.20;99.90;;;;;;5094259;28;20572;-80
2023/02/26 07:48:35;;;;;;;4.93;2.55;;;1.20;99.90;;;;;;5071672;28;20208;-82
2023/02/26 07:51:03;;;;;;;3.13;2.65;;;1.30;99.90;;;;;;5077385;28;20237;-80
2023/02/26 07:53:30;;;;;;;2.13;1.95;;;1.30;99.90;;;;;;5095726;28;20557;-81
2023/02/26 07:56:00;;;;;;;2.80;1.92;;;1.40;99.90;;;;;;5087194;28;20501;-80
2023/02/26 07:58:27;;;;;;;4.53;2.55;;;1.40;99.90;;;;;;5088444;28;20238;-82
2023/02/26 08:00:53;;;;;;;4.30;2.95;;;1.50;99.90;;;;;;5089983;28;20240;-81
2023/02/26 08:03:21;;;;;;;2.38;2.17;;;1.60;99.90;;;;;;5100082;28;20256;-80
2023/02/26 08:05:47;;;;;;;2.17;1.90;;;1.60;99.90;;;;;;5104045;28;20240;-81
2023/02/26 08:08:15;;;;;;;2.05;1.95;;;1.60;99.90;;;;;;5120413;28;20217;-81
2023/02/26 08:10:42;;;;;;;2.47;2.28;;;1.60;99.90;;;;;;5114441;28;20191;-82
2023/02/26 08:13:09;;;;;;;2.45;2.25;;;1.70;99.90;;;;;;5098887;28;20201;-81
2023/02/26 08:15:36;;;;;;;3.13;2.83;;;1.50;99.90;;;;;;5106234;28;20183;-82
2023/02/26 08:18:03;;;;;;;3.80;2.25;;;1.50;99.90;;;;;;5089769;28;20220;-81
2023/02/26 08:20:31;;;;;;;3.40;2.22;;;1.50;99.90;;;;;;5097118;28;20203;-81
2023/02/26 08:22:58;;;;;;;3.00;2.33;;;1.50;99.90;;;;;;5095607;28;20218;-80
2023/02/26 08:25:24;;;;;;;2.55;2.35;;;1.50;99.90;;;;;;5100764;28;20206;-80
2023/02/26 08:27:51;;;;;;;2.83;2.53;;;1.80;99.90;;;;;;5098983;28;20236;-81
2023/02/26 08:30:18;;;;;;;3.05;2.67;;;1.80;99.90;;;;;;5089392;28;20242;-82
2023/02/26 08:32:45;;;;;;;4.15;2.90;;;1.80;99.90;;;;;;5083280;28;20202;-83
2023/02/26 08:35:13;;;;;;;4.65;2.78;;;1.90;99.90;;;;;;5089820;28;20215;-83
2023/02/26 08:37:39;;;;;;;2.45;2.10;;;1.90;99.90;;;;;;5087572;28;20243;-82
2023/02/26 08:40:08;;;;;;;2.45;2.03;;;1.90;99.90;;;;;;5085848;28;20198;-81
2023/02/26 08:42:35;;;;;;;5.28;2.58;;;2.00;99.90;;;;;;5088238;28;20195;-81
2023/02/26 08:45:03;;;;;;;6.43;2.17;;;2.20;99.90;;;;;;5071232;28;20576;-83
2023/02/26 08:47:33;;;;;;;1.70;1.60;;;2.10;99.90;;;;;;5079893;28;20264;-83
2023/02/26 08:50:06;;;;;;;2.88;2.10;;;2.00;99.90;;;;;;5095918;28;20282;-81
2023/02/26 08:52:32;;;;;;;4.10;1.92;;;2.00;99.90;;;;;;5089052;28;20235;-82
2023/02/26 08:54:59;;;;;;;3.05;2.58;;;2.00;99.90;;;;;;5095375;28;20459;-83
2023/02/26 08:57:26;;;;;;;4.35;2.58;;;2.00;99.90;;;;;;5089455;28;20430;-81
2023/02/26 08:59:55;;;;;;;2.53;2.33;;;2.00;99.90;;;;;;5083796;28;20204;-81
2023/02/26 09:02:22;;;;;;;4.95;4.55;;;2.10;99.90;;;;;;5094193;28;20766;-82
2023/02/26 09:04:49;;;;;;;3.75;2.20;;;2.20;99.90;;;;;;5077117;28;20207;-82
2023/02/26 09:07:16;;;;;;;2.88;2.58;;;2.20;99.90;;;;;;5098820;28;20243;-81
2023/02/26 09:09:43;;;;;;;2.47;2.15;;;2.20;99.90;;;;;;5079551;28;20206;-81
2023/02/26 09:12:09;;;;;;;2.92;2.50;;;2.20;99.90;;;;;;5091234;28;20199;-81
2023/02/26 09:14:36;;;;;;;3.85;2.33;;;2.00;99.90;;;;;;5082571;28;20219;-82
2023/02/26 09:17:03;;;;;;;3.45;3.15;;;2.10;99.90;;;;;;5103724;28;20214;-80
2023/02/26 09:19:31;;;;;;;3.63;2.60;;;2.10;99.90;;;;;;5087041;28;20277;-81
2023/02/26 09:21:58;;;;;;;3.33;2.95;;;2.00;99.90;;;;;;5087291;28;20196;-82
2023/02/26 09:24:26;;;;;;;5.10;4.70;;;2.00;99.90;;;;;;5094562;28;20396;-82
2023/02/26 09:26:53;;;;;;;6.80;3.00;;;2.10;99.90;;;;;;5105546;28;20362;-82
2023/02/26 09:29:21;;;;;;;3.38;3.08;;;2.30;99.90;;;;;;5096054;28;20213;-82
2023/02/26 09:31:48;;;;;;;3.25;2.88;;;2.10;99.90;;;;;;5093837;28;20267;-82
2023/02/26 09:34:16;;;;;;;5.70;4.75;;;2.00;99.90;;;;;;5102788;28;20249;-81
2023/02/26 09:36:43;;;;;;;3.83;2.90;;;2.10;99.90;;;;;;5097231;28;20242;-82
2023/02/26 09:39:10;;;;;;;3.75;2.67;;;2.40;99.90;;;;;;5069687;28;20260;-82
2023/02/26 09:41:43;;;;;;;3.15;1.95;;;2.60;99.90;;;;;;5089986;28;20373;-80
2023/02/26 09:44:18;;;;;;;3.28;2.70;;;2.60;99.90;;;;;;5087332;28;20254;-82
2023/02/26 09:47:08;;;;;;;2.83;2.28;;;2.70;99.90;;;;;;5073923;28;20801;-81
2023/02/26 09:50:04;;;;;;;3.90;2.00;;;2.80;99.90;;;;;;5084174;28;20248;-80
2023/02/26 09:53:11;;;;;;;10.77;2.70;;;2.80;99.90;;;;;;5069200;28;20423;-81
2023/02/26 09:55:49;;;;;;;3.50;2.55;;;2.90;99.90;;;;;;5032223;28;20217;-81
2023/02/26 09:58:26;;;;;;;2.45;2.20;;;3.00;99.90;;;;;;5099036;28;20288;-81
2023/02/26 10:01:09;;;;;;;3.95;2.53;;;3.10;99.90;;;;;;5106435;28;20398;-81
2023/02/26 10:04:14;;;;;;;2.72;2.50;;;2.90;99.90;;;;;;5093145;28;20435;-82
2023/02/26 10:07:03;;;;;;;4.63;2.70;;;2.90;99.90;;;;;;5075235;28;20271;-82
2023/02/26 10:09:55;;;;;;;2.75;2.55;;;2.70;99.90;;;;;;5098251;28;20209;-81
2023/02/26 10:12:25;;;;;;;2.30;2.05;;;2.50;99.90;;;;;;5087656;28;20451;-82
2023/02/26 10:15:11;;;;;;;6.38;3.72;;;2.40;99.90;;;;;;5086758;28;20199;-82
2023/02/26 10:18:05;;;;;;;4.47;2.22;;;2.30;99.90;;;;;;5096055;28;20405;-82
2023/02/26 10:20:51;;;;;;;3.50;2.78;;;2.60;99.90;;;;;;5092284;28;20287;-84
2023/02/26 10:23:27;;;;;;;3.42;2.75;;;2.60;99.90;;;;;;5077175;28;20223;-82
2023/02/26 10:26:20;;;;;;;2.58;2.15;;;2.90;99.90;;;;;;5092510;28;20223;-83
2023/02/26 10:29:10;;;;;;;3.22;2.60;;;3.10;99.90;;;;;;5087857;28;20387;-82
2023/02/26 10:31:57;;;;;;;5.30;2.95;;;3.50;99.90;;;;;;5061194;28;20319;-82
2023/02/26 10:34:27;;;;;;;3.80;2.47;;;3.30;99.90;;;;;;5096259;28;20440;-83
2023/02/26 10:37:12;;;;;;;5.13;2.50;;;3.10;99.90;;;;;;5097350;28;20446;-83
2023/02/26 10:40:08;;;;;;;2.78;2.35;;;3.00;99.90;;;;;;5075199;28;20220;-82
2023/02/26 10:42:56;;;;;;;2.63;2.00;;;2.90;99.90;;;;;;5077218;28;20225;-81
2023/02/26 10:45:40;;;;;;;2.85;2.55;;;2.80;99.90;;;;;;5093081;28;20478;-83
2023/02/26 10:48:45;;;;;;;4.68;2.50;;;3.00;99.90;;;;;;5099700;28;20204;-81
2023/02/26 10:51:16;;;;;;;2.80;2.60;;;3.30;99.90;;;;;;5089525;28;20346;-81
2023/02/26 10:53:52;;;;;;;3.55;3.10;;;3.50;99.90;;;;;;5087832;28;20243;-83
2023/02/26 10:56:25;;;;;;;2.28;2.08;;;3.40;99.90;;;;;;5075104;28;20225;-81
2023/02/26 10:58:53;;;;;;;2.47;2.28;;;3.40;99.90;;;;;;5103260;28;20234;-82
2023/02/26 11:01:23;;;;;;;6.10;3.05;;;3.40;99.90;;;;;;5097086;28;20260;-81
2023/02/26 11:04:00;;;;;;;2.42;2.22;;;3.60;99.90;;;;;;5099510;28;20201;-82
2023/02/26 11:06:47;;;;;;;2.20;1.60;;;3.70;99.90;;;;;;5092556;28;20205;-81
2023/02/26 11:09:38;;;;;;;2.85;2.65;;;3.80;99.90;;;;;;5088306;28;20216;-81
2023/02/26 11:12:14;;;;;;;3.70;2.15;;;4.10;99.90;;;;;;5088846;28;20213;-82
2023/02/26 11:14:43;;;;;;;2.70;1.85;;;3.80;99.90;;;;;;5084271;28;20251;-80
2023/02/26 11:17:15;;;;;;;4.15;2.63;;;3.60;99.90;;;;;;5101660;28;20513;-79
2023/02/26 11:19:52;;;;;;;3.80;2.20;;;3.60;99.90;;;;;;5096496;28;20222;-80
2023/02/26 11:22:21;;;;;;;2.92;2.20;;;3.70;99.90;;;;;;5084576;28;20209;-81
2023/02/26 11:24:50;;;;;;;2.97;2.03;;;3.80;99.90;;;;;;5068602;28;20209;-83
2023/02/26 11:27:24;;;;;;;5.80;2.10;;;4.00;99.90;;;;;;5091448;28;20210;-81
2023/02/26 11:29:58;;;;;;;3.50;2.65;;;4.00;99.90;;;;;;5083790;28;20275;-81
2023/02/26 11:32:36;;;;;;;4.45;2.03;;;3.90;99.90;;;;;;5066673;28;20237;-81
2023/02/26 11:35:16;;;;;;;3.13;2.50;;;3.60;99.90;;;;;;5093481;28;20210;-81
2023/02/26 11:37:51;;;;;;;3.92;2.67;;;3.30;99.90;;;;;;5095559;28;20242;-82
2023/02/26 11:40:26;;;;;;;6.60;2.97;;;3.40;99.90;;;;;;5093912;28;20229;-81
2023/02/26 11:43:04;;;;;;;3.17;2.20;;;3.50;99.90;;;;;;5093702;28;20439;-83
2023/02/26 11:45:35;;;;;;;5.60;2.90;;;3.50;99.90;;;;;;5096385;28;20217;-82
2023/02/26 11:48:14;;;;;;;3.30;2.80;;;3.40;99.90;;;;;;5098265;28;20575;-81
2023/02/26 11:50:45;;;;;;;3.35;2.70;;;3.40;99.90;;;;;;5090061;28;20233;-83
2023/02/26 11:53:36;;;;;;;7.90;3.78;;;3.40;99.90;;;;;;5099395;28;20216;-81
2023/02/26 11:56:11;;;;;;;7.47;3.42;;;3.40;99.90;;;;;;5096015;28;20223;-80
2023/02/26 11:58:45;;;;;;;7.38;3.13;;;3.40;99.90;;;;;;5089996;28;20259;-82
2023/02/26 12:01:15;;;;;;;4.13;2.72;;;3.30;99.90;;;;;;5077924;28;20219;-83
2023/02/26 12:03:49;;;;;;;2.47;2.20;;;3.40;99.90;;;;;;5073514;28;20290;-81
2023/02/26 12:06:23;;;;;;;2.80;2.25;;;3.80;99.90;;;;;;5091699;28;20705;-81
2023/02/26 12:08:52;;;;;;;4.57;2.60;;;4.10;99.90;;;;;;5074280;28;20236;-81
2023/02/26 12:11:38;;;;;;;5.45;3.20;;;4.10;99.90;;;;;;5100416;28;20255;-82
2023/02/26 12:14:24;;;;;;;4.72;2.83;;;3.50;99.90;;;;;;5092663;28;20213;-81
2023/02/26 12:17:19;;;;;;;6.28;3.20;;;2.20;99.90;;;;;;5104310;28;20209;-80
2023/02/26 12:20:18;;;;;;;4.53;3.25;;;1.50;99.90;;;;;;5090271;28;20238;-82
2023/02/26 12:23:17;;;;;;;5.82;5.07;;;1.50;99.90;;;;;;5075343;28;20216;-81
2023/02/26 12:26:14;;;;;;;4.85;3.78;;;1.50;99.90;;;;;;5097659;28;20257;-82
2023/02/26 12:29:09;;;;;;;3.88;3.47;;;1.60;99.90;;;;;;5092781;28;20206;-83
2023/02/26 12:32:07;;;;;;;5.88;5.32;;;1.70;99.90;;;;;;5094871;28;20203;-81
2023/02/26 12:34:40;;;;;;;4.68;4.28;;;1.90;99.90;;;;;;5106643;28;20216;-81
2023/02/26 12:37:44;;;;;;;5.82;4.28;;;2.10;99.90;;;;;;5109780;28;20357;-80
2023/02/26 12:40:29;;;;;;;6.70;4.35;;;2.30;99.90;;;;;;5095973;28;20232;-81
2023/02/26 12:43:12;;;;;;;4.50;3.80;;;2.30;99.90;;;;;;5099229;28;20227;-83
2023/02/26 12:46:06;;;;;;;4.05;3.75;;;2.30;99.90;;;;;;5093135;28;20188;-81
2023/02/26 12:48:43;;;;;;;5.45;4.32;;;2.20;99.90;;;;;;5117184;28;20198;-80
2023/02/26 12:51:17;;;;;;;5.88;3.83;;;2.10;99.90;;;;;;5112669;28;20196;-84
2023/02/26 12:53:51;;;;;;;4.95;4.55;;;2.00;99.90;;;;;;5091955;28;20201;-80
2023/02/26 12:56:38;;;;;;;5.68;4.70;;;1.90;99.90;;;;;;5098019;28;20242;-82
2023/02/26 12:59:11;;;;;;;4.97;4.38;;;2.00;99.90;;;;;;5079732;28;20224;-81
2023/02/26 13:02:04;;;;;;;7.93;5.82;;;2.10;99.90;;;;;;5091817;28;20204;-83
2023/02/26 13:04:46;;;;;;;9.18;5.20;;;2.20;99.90;;;;;;5098234;28;20427;-82
2023/02/26 13:07:39;;;;;;;7.35;4.13;;;2.10;99.90;;;;;;5094021;28;20208;-82
2023/02/26 13:10:20;;;;;;;5.35;4.07;;;2.00;99.90;;;;;;5093653;28;20253;-81
2023/02/26 13:13:18;;;;;;;4.15;3.75;;;2.00;99.90;;;;;;5072532;28;20208;-83
2023/02/26 13:16:02;;;;;;;7.47;3.58;;;2.10;99.90;;;;;;5089756;28;20207;-81
2023/02/26 13:18:55;;;;;;;3.58;2.10;;;2.00;99.90;;;;;;5090235;28;20491;-83
2023/02/26 13:21:36;;;;;;;3.47;2.10;;;2.00;99.90;;;;;;5081124;28;20260;-82
2023/02/26 13:24:28;;;;;;;3.95;2.20;;;2.10;99.90;;;;;;5089857;28;20209;-82
2023/02/26 13:26:57;;;;;;;2.72;2.25;;;2.20;99.90;;;;;;5082819;28;20251;-83
2023/02/26 13:29:57;;;;;;;2.97;2.00;;;2.40;99.90;;;;;;5086506;28;20211;-85
2023/02/26 13:32:26;;;;;;;2.40;1.48;;;2.70;99.90;;;;;;5064320;28;20205;-82